sensor_id;sensor_type;location;lat;lon;timestamp;pressure;altitude;pressure_sealevel;temperature;humidity
7990;BME280;4040;42.848;23.034;2023-03-19T00:00:55;95472.81;;;1.12;100.00
7990;BME280;4040;42.848;23.034;2023-03-19T00:11:06;95466.72;;;1.12;100.00
7990;BME280;4040;42.848;23.034;2023-03-19T00:16:56;95444.97;;;1.18;100.00
7990;BME280;4040;42.848;23.034;2023-03-19T00:22:45;95450.44;;;1.01;100.00
7990;BME280;4040;42.848;23.034;2023-03-19T00:28:33;95437.22;;;1.13;100.00
7990;BME280;4040;42.848;23.034;2023-03-19T00:34:25;95433.34;;;1.11;100.00
7990;BME280;4040;42.848;23.034;2023-03-19T00:40:13;95430.25;;;0.88;100.00
7990;BME280;4040;42.848;23.034;2023-03-19T00:46:02;95433.66;;;0.77;100.00
7990;BME280;4040;42.848;23.034;2023-03-19T00:51:52;95424.84;;;0.44;100.00
7990;BME280;4040;42.848;23.034;2023-03-19T00:57:41;95419.75;;;0.10;100.00
7990;BME280;4040;42.848;23.034;2023-03-19T01:03:30;95415.59;;;0.00;100.00
7990;BME280;4040;42.848;23.034;2023-03-19T01:13:42;95414.59;;;0.13;100.00
7990;BME280;4040;42.848;23.034;2023-03-19T01:19:31;95410.13;;;0.05;100.00
7990;BME280;4040;42.848;23.034;2023-03-19T01:25:20;95414.84;;;0.00;100.00
7990;BME280;4040;42.848;23.034;2023-03-19T01:31:10;95407.59;;;0.09;100.00
7990;BME280;4040;42.848;23.034;2023-03-19T01:36:59;95406.03;;;0.16;100.00
7990;BME280;4040;42.848;23.034;2023-03-19T01:42:52;95406.41;;;0.27;100.00
7990;BME280;4040;42.848;23.034;2023-03-19T01:48:43;95408.91;;;0.23;100.00
7990;BME280;4040;42.848;23.034;2023-03-19T01:54:33;95409.97;;;0.31;100.00
7990;BME280;4040;42.848;23.034;2023-03-19T02:00:23;95406.19;;;0.11;100.00
7990;BME280;4040;42.848;23.034;2023-03-19T02:06:34;95420.75;;;-0.03;100.00
7990;BME280;4040;42.848;23.034;2023-03-19T02:16:26;95412.78;;;0.05;100.00
7990;BME280;4040;42.848;23.034;2023-03-19T02:22:19;95391.97;;;-0.04;100.00
7990;BME280;4040;42.848;23.034;2023-03-19T02:28:11;95416.47;;;0.13;100.00
7990;BME280;4040;42.848;23.034;2023-03-19T02:34:04;95425.75;;;0.27;100.00
7990;BME280;4040;42.848;23.034;2023-03-19T02:39:55;95429.59;;;0.09;100.00
7990;BME280;4040;42.848;23.034;2023-03-19T02:45:47;95424.00;;;0.02;100.00
7990;BME280;4040;42.848;23.034;2023-03-19T02:51:35;95425.81;;;-0.18;100.00
7990;BME280;4040;42.848;23.034;2023-03-19T02:57:24;95421.34;;;0.02;100.00
7990;BME280;4040;42.848;23.034;2023-03-19T03:03:15;95431.13;;;0.10;100.00
7990;BME280;4040;42.848;23.034;2023-03-19T03:09:04;95414.63;;;-0.24;100.00
7990;BME280;4040;42.848;23.034;2023-03-19T03:19:16;95428.44;;;-0.10;100.00
7990;BME280;4040;42.848;23.034;2023-03-19T03:25:06;95429.75;;;-0.24;100.00
7990;BME280;4040;42.848;23.034;2023-03-19T03:30:57;95433.19;;;-0.32;100.00
7990;BME280;4040;42.848;23.034;2023-03-19T03:36:48;95437.94;;;-0.46;100.00
7990;BME280;4040;42.848;23.034;2023-03-19T03:42:37;95433.25;;;-0.49;100.00
7990;BME280;4040;42.848;23.034;2023-03-19T03:48:26;95439.53;;;-0.62;100.00
7990;BME280;4040;42.848;23.034;2023-03-19T03:54:16;95442.34;;;-0.67;100.00
7990;BME280;4040;42.848;23.034;2023-03-19T04:00:05;95428.38;;;-0.76;100.00
7990;BME280;4040;42.848;23.034;2023-03-19T04:05:54;95398.78;;;-0.78;100.00
7990;BME280;4040;42.848;23.034;2023-03-19T04:11:44;95439.94;;;-0.43;100.00
7990;BME280;4040;42.848;23.034;2023-03-19T04:21:55;95440.00;;;-0.69;100.00
7990;BME280;4040;42.848;23.034;2023-03-19T04:27:45;95442.19;;;-0.71;100.00
7990;BME280;4040;42.848;23.034;2023-03-19T04:33:34;95448.84;;;-0.56;100.00
7990;BME280;4040;42.848;23.034;2023-03-19T04:39:23;95436.66;;;-0.40;100.00
7990;BME280;4040;42.848;23.034;2023-03-19T04:45:14;95437.78;;;-0.12;100.00
7990;BME280;4040;42.848;23.034;2023-03-19T04:51:03;95437.00;;;-0.13;100.00
7990;BME280;4040;42.848;23.034;2023-03-19T04:56:54;95436.00;;;-0.37;100.00
7990;BME280;4040;42.848;23.034;2023-03-19T05:02:45;95424.16;;;-0.31;100.00
7990;BME280;4040;42.848;23.034;2023-03-19T05:08:34;95431.56;;;-0.16;100.00
7990;BME280;4040;42.848;23.034;2023-03-19T05:14:23;95444.31;;;-0.10;100.00
7990;BME280;4040;42.848;23.034;2023-03-19T05:24:34;95451.72;;;0.54;100.00
7990;BME280;4040;42.848;23.034;2023-03-19T05:30:23;95453.16;;;1.13;100.00
7990;BME280;4040;42.848;23.034;2023-03-19T05:36:13;95450.81;;;4.48;100.00
7990;BME280;4040;42.848;23.034;2023-03-19T05:42:04;95438.41;;;7.43;71.45
7990;BME280;4040;42.848;23.034;2023-03-19T05:47:53;95428.16;;;8.29;57.95
7990;BME280;4040;42.848;23.034;2023-03-19T05:53:42;95443.19;;;9.73;52.15
7990;BME280;4040;42.848;23.034;2023-03-19T05:59:32;95442.72;;;11.66;47.60
7990;BME280;4040;42.848;23.034;2023-03-19T06:05:21;95451.63;;;11.63;44.74
7990;BME280;4040;42.848;23.034;2023-03-19T06:11:09;95461.41;;;12.08;43.74
7990;BME280;4040;42.848;23.034;2023-03-19T06:17:00;95455.22;;;12.65;42.47
7990;BME280;4040;42.848;23.034;2023-03-19T06:27:10;95462.53;;;11.21;45.33
7990;BME280;4040;42.848;23.034;2023-03-19T06:33:01;95467.28;;;11.89;45.26
7990;BME280;4040;42.848;23.034;2023-03-19T06:38:50;95470.72;;;11.97;45.19
7990;BME280;4040;42.848;23.034;2023-03-19T06:44:39;95470.31;;;12.05;44.83
7990;BME280;4040;42.848;23.034;2023-03-19T06:50:29;95472.72;;;11.82;45.78
7990;BME280;4040;42.848;23.034;2023-03-19T06:56:18;95462.47;;;12.75;43.67
7990;BME280;4040;42.848;23.034;2023-03-19T07:02:09;95472.66;;;13.45;43.22
7990;BME280;4040;42.848;23.034;2023-03-19T07:08:00;95467.19;;;13.49;43.53
7990;BME280;4040;42.848;23.034;2023-03-19T07:13:49;95463.84;;;13.01;42.17
7990;BME280;4040;42.848;23.034;2023-03-19T07:19:38;95468.94;;;13.66;42.31
7990;BME280;4040;42.848;23.034;2023-03-19T07:29:50;95475.19;;;15.44;38.41
7990;BME280;4040;42.848;23.034;2023-03-19T07:35:39;95466.63;;;16.59;37.51
7990;BME280;4040;42.848;23.034;2023-03-19T07:41:28;95465.91;;;19.67;32.61
7990;BME280;4040;42.848;23.034;2023-03-19T07:47:18;95464.00;;;20.41;30.74
7990;BME280;4040;42.848;23.034;2023-03-19T07:53:08;95460.75;;;21.69;28.96
7990;BME280;4040;42.848;23.034;2023-03-19T07:58:57;95459.16;;;21.32;29.20
7990;BME280;4040;42.848;23.034;2023-03-19T08:04:47;95463.41;;;17.85;33.51
7990;BME280;4040;42.848;23.034;2023-03-19T08:10:36;95458.66;;;21.07;30.18
7990;BME280;4040;42.848;23.034;2023-03-19T08:16:25;95451.50;;;22.53;27.84
7990;BME280;4040;42.848;23.034;2023-03-19T08:22:15;95453.91;;;21.83;28.12
7990;BME280;4040;42.848;23.034;2023-03-19T08:32:25;95446.66;;;21.13;28.15
7990;BME280;4040;42.848;23.034;2023-03-19T08:38:16;95451.56;;;20.49;28.86
7990;BME280;4040;42.848;23.034;2023-03-19T08:44:04;95435.25;;;21.24;28.63
7990;BME280;4040;42.848;23.034;2023-03-19T08:49:53;95437.25;;;21.59;27.69
7990;BME280;4040;42.848;23.034;2023-03-19T08:55:44;95432.31;;;22.26;26.25
7990;BME280;4040;42.848;23.034;2023-03-19T09:01:32;95412.66;;;24.68;24.46
7990;BME280;4040;42.848;23.034;2023-03-19T09:07:21;95417.81;;;24.95;23.36
7990;BME280;4040;42.848;23.034;2023-03-19T09:13:11;95412.44;;;22.58;26.09
7990;BME280;4040;42.848;23.034;2023-03-19T09:19:00;95409.19;;;23.01;25.77
7990;BME280;4040;42.848;23.034;2023-03-19T09:24:49;95404.94;;;25.41;24.40
7990;BME280;4040;42.848;23.034;2023-03-19T09:35:01;95378.50;;;27.23;21.81
7990;BME280;4040;42.848;23.034;2023-03-19T09:40:58;95381.53;;;27.25;20.94
7990;BME280;4040;42.848;23.034;2023-03-19T09:46:53;95369.44;;;29.29;19.24
7990;BME280;4040;42.848;23.034;2023-03-19T09:52:46;95375.31;;;28.16;19.92
7990;BME280;4040;42.848;23.034;2023-03-19T09:58:36;95350.53;;;29.90;18.90
7990;BME280;4040;42.848;23.034;2023-03-19T10:04:49;95352.09;;;27.22;18.01
7990;BME280;4040;42.848;23.034;2023-03-19T10:10:49;95348.38;;;28.11;18.55
7990;BME280;4040;42.848;23.034;2023-03-19T10:16:40;95340.34;;;28.52;18.16
7990;BME280;4040;42.848;23.034;2023-03-19T10:22:35;95320.31;;;29.19;18.89
7990;BME280;4040;42.848;23.034;2023-03-19T10:28:28;95321.44;;;28.34;18.70
7990;BME280;4040;42.848;23.034;2023-03-19T10:34:24;95301.97;;;28.78;18.22
7990;BME280;4040;42.848;23.034;2023-03-19T10:40:21;95284.25;;;31.18;16.72
7990;BME280;4040;42.848;23.034;2023-03-19T10:46:13;95288.63;;;28.93;18.61
7990;BME280;4040;42.848;23.034;2023-03-19T10:52:02;95273.94;;;27.27;19.38
7990;BME280;4040;42.848;23.034;2023-03-19T10:58:00;95266.53;;;29.79;18.42
7990;BME280;4040;42.848;23.034;2023-03-19T11:03:54;95248.28;;;29.43;18.70
7990;BME280;4040;42.848;23.034;2023-03-19T11:09:45;95243.84;;;28.12;19.12
7990;BME280;4040;42.848;23.034;2023-03-19T11:15:36;95224.59;;;28.85;19.89
7990;BME280;4040;42.848;23.034;2023-03-19T11:21:28;95223.03;;;23.83;23.09
7990;BME280;4040;42.848;23.034;2023-03-19T11:27:28;95218.56;;;18.89;28.13
7990;BME280;4040;42.848;23.034;2023-03-19T11:37:50;95211.19;;;17.84;31.04
7990;BME280;4040;42.848;23.034;2023-03-19T11:43:47;95198.97;;;17.26;32.26
7990;BME280;4040;42.848;23.034;2023-03-19T11:49:58;95186.22;;;17.11;32.18
7990;BME280;4040;42.848;23.034;2023-03-19T11:55:58;95177.47;;;16.91;32.72
7990;BME280;4040;42.848;23.034;2023-03-19T12:02:10;95166.72;;;17.12;32.82
7990;BME280;4040;42.848;23.034;2023-03-19T12:08:13;95161.34;;;17.37;35.21
7990;BME280;4040;42.848;23.034;2023-03-19T12:14:24;95156.31;;;17.48;32.33
7990;BME280;4040;42.848;23.034;2023-03-19T12:20:33;95136.13;;;16.96;32.79
7990;BME280;4040;42.848;23.034;2023-03-19T12:26:33;95159.66;;;17.15;33.26
7990;BME280;4040;42.848;23.034;2023-03-19T12:32:45;95147.13;;;17.67;32.60
7990;BME280;4040;42.848;23.034;2023-03-19T12:38:42;95146.38;;;17.54;32.42
7990;BME280;4040;42.848;23.034;2023-03-19T12:44:36;95124.28;;;17.65;32.55
7990;BME280;4040;42.848;23.034;2023-03-19T12:50:42;95124.91;;;17.56;31.93
7990;BME280;4040;42.848;23.034;2023-03-19T12:56:36;95102.16;;;17.63;32.54
7990;BME280;4040;42.848;23.034;2023-03-19T13:02:31;95115.50;;;17.82;32.22
7990;BME280;4040;42.848;23.034;2023-03-19T13:08:27;95108.78;;;17.74;32.04
7990;BME280;4040;42.848;23.034;2023-03-19T13:14:21;95103.53;;;18.13;31.49
7990;BME280;4040;42.848;23.034;2023-03-19T13:20:18;95094.78;;;18.18;31.52
7990;BME280;4040;42.848;23.034;2023-03-19T13:26:11;95093.63;;;18.07;31.75
7990;BME280;4040;42.848;23.034;2023-03-19T13:32:02;95088.09;;;17.98;31.58
7990;BME280;4040;42.848;23.034;2023-03-19T13:37:57;95078.66;;;18.11;31.66
7990;BME280;4040;42.848;23.034;2023-03-19T13:43:54;95057.72;;;18.42;31.36
7990;BME280;4040;42.848;23.034;2023-03-19T13:50:01;95056.63;;;18.40;31.48
7990;BME280;4040;42.848;23.034;2023-03-19T13:55:58;95048.63;;;18.24;31.49
7990;BME280;4040;42.848;23.034;2023-03-19T14:01:48;95045.34;;;18.29;31.32
7990;BME280;4040;42.848;23.034;2023-03-19T14:07:38;95034.81;;;18.40;31.74
7990;BME280;4040;42.848;23.034;2023-03-19T14:13:33;95037.69;;;18.36;31.46
7990;BME280;4040;42.848;23.034;2023-03-19T14:19:26;95017.69;;;18.18;31.59
7990;BME280;4040;42.848;23.034;2023-03-19T14:25:18;95029.16;;;17.92;33.00
7990;BME280;4040;42.848;23.034;2023-03-19T14:31:18;95045.81;;;17.93;31.89
7990;BME280;4040;42.848;23.034;2023-03-19T14:37:18;95042.56;;;18.20;32.21
7990;BME280;4040;42.848;23.034;2023-03-19T14:43:16;95031.59;;;17.77;32.18
7990;BME280;4040;42.848;23.034;2023-03-19T14:49:38;95004.75;;;17.88;31.94
7990;BME280;4040;42.848;23.034;2023-03-19T14:55:36;95027.28;;;18.01;32.38
7990;BME280;4040;42.848;23.034;2023-03-19T15:01:26;95026.31;;;17.95;33.20
7990;BME280;4040;42.848;23.034;2023-03-19T15:07:19;95030.56;;;17.96;32.73
7990;BME280;4040;42.848;23.034;2023-03-19T15:13:21;95015.72;;;17.76;32.34
7990;BME280;4040;42.848;23.034;2023-03-19T15:19:17;95026.16;;;17.77;32.93
7990;BME280;4040;42.848;23.034;2023-03-19T15:25:11;95028.41;;;17.57;33.35
7990;BME280;4040;42.848;23.034;2023-03-19T15:31:04;95035.25;;;17.62;32.81
7990;BME280;4040;42.848;23.034;2023-03-19T15:36:55;95004.50;;;17.27;33.52
7990;BME280;4040;42.848;23.034;2023-03-19T15:42:46;95040.84;;;17.33;33.26
7990;BME280;4040;42.848;23.034;2023-03-19T15:48:41;95038.47;;;17.10;33.84
7990;BME280;4040;42.848;23.034;2023-03-19T15:54:31;95039.69;;;16.97;34.47
7990;BME280;4040;42.848;23.034;2023-03-19T16:00:20;95052.31;;;16.91;34.54
7990;BME280;4040;42.848;23.034;2023-03-19T16:06:17;95046.00;;;16.81;35.11
7990;BME280;4040;42.848;23.034;2023-03-19T16:12:30;95049.91;;;16.55;35.81
7990;BME280;4040;42.848;23.034;2023-03-19T16:18:27;95047.41;;;16.20;36.26
7990;BME280;4040;42.848;23.034;2023-03-19T16:24:23;95051.81;;;16.01;36.77
7990;BME280;4040;42.848;23.034;2023-03-19T16:30:19;95055.78;;;15.68;37.21
7990;BME280;4040;42.848;23.034;2023-03-19T16:40:45;95074.03;;;15.20;40.75
7990;BME280;4040;42.848;23.034;2023-03-19T16:46:34;95082.56;;;14.51;42.33
7990;BME280;4040;42.848;23.034;2023-03-19T16:52:23;95084.44;;;13.96;43.03
7990;BME280;4040;42.848;23.034;2023-03-19T16:58:14;95091.66;;;13.37;45.31
7990;BME280;4040;42.848;23.034;2023-03-19T17:04:10;95063.72;;;12.97;46.81
7990;BME280;4040;42.848;23.034;2023-03-19T17:10:03;95104.44;;;12.57;48.33
7990;BME280;4040;42.848;23.034;2023-03-19T17:15:54;95099.31;;;12.36;49.90
7990;BME280;4040;42.848;23.034;2023-03-19T17:21:44;95115.91;;;12.01;50.41
7990;BME280;4040;42.848;23.034;2023-03-19T17:27:33;95099.31;;;11.66;51.69
7990;BME280;4040;42.848;23.034;2023-03-19T17:33:25;95124.06;;;11.57;53.20
7990;BME280;4040;42.848;23.034;2023-03-19T17:43:37;95099.91;;;10.92;55.74
7990;BME280;4040;42.848;23.034;2023-03-19T17:49:28;95140.41;;;10.78;57.77
7990;BME280;4040;42.848;23.034;2023-03-19T17:55:20;95147.97;;;10.32;60.76
7990;BME280;4040;42.848;23.034;2023-03-19T18:01:12;95149.56;;;10.09;65.02
7990;BME280;4040;42.848;23.034;2023-03-19T18:07:02;95157.34;;;9.65;69.01
7990;BME280;4040;42.848;23.034;2023-03-19T18:12:51;95165.03;;;9.32;73.96
7990;BME280;4040;42.848;23.034;2023-03-19T18:18:40;95164.28;;;9.35;72.86
7990;BME280;4040;42.848;23.034;2023-03-19T18:24:31;95164.25;;;9.42;72.24
7990;BME280;4040;42.848;23.034;2023-03-19T18:30:21;95173.47;;;9.27;74.21
7990;BME280;4040;42.848;23.034;2023-03-19T18:36:16;95171.94;;;9.05;76.86
7990;BME280;4040;42.848;23.034;2023-03-19T18:46:29;95185.66;;;8.65;81.18
7990;BME280;4040;42.848;23.034;2023-03-19T18:52:19;95189.53;;;8.71;79.73
7990;BME280;4040;42.848;23.034;2023-03-19T18:58:10;95184.50;;;8.66;81.39
7990;BME280;4040;42.848;23.034;2023-03-19T19:04:04;95173.25;;;8.32;84.43
7990;BME280;4040;42.848;23.034;2023-03-19T19:09:54;95181.50;;;7.96;88.09
7990;BME280;4040;42.848;23.034;2023-03-19T19:15:43;95205.50;;;7.75;90.81
7990;BME280;4040;42.848;23.034;2023-03-19T19:21:34;95205.75;;;7.52;93.99
7990;BME280;4040;42.848;23.034;2023-03-19T19:27:23;95201.31;;;7.27;99.18
7990;BME280;4040;42.848;23.034;2023-03-19T19:33:18;95220.91;;;7.35;100.00
7990;BME280;4040;42.848;23.034;2023-03-19T19:39:08;95219.97;;;7.17;100.00
7990;BME280;4040;42.848;23.034;2023-03-19T19:49:20;95229.50;;;7.14;100.00
7990;BME280;4040;42.848;23.034;2023-03-19T19:55:10;95225.63;;;7.08;100.00
7990;BME280;4040;42.848;23.034;2023-03-19T20:00:59;95231.31;;;7.03;100.00
7990;BME280;4040;42.848;23.034;2023-03-19T20:06:48;95237.41;;;7.00;100.00
7990;BME280;4040;42.848;23.034;2023-03-19T20:12:39;95235.28;;;7.16;100.00
7990;BME280;4040;42.848;23.034;2023-03-19T20:18:31;95242.84;;;7.07;100.00
7990;BME280;4040;42.848;23.034;2023-03-19T20:24:21;95247.25;;;6.89;100.00
7990;BME280;4040;42.848;23.034;2023-03-19T20:30:20;95251.78;;;6.85;100.00
7990;BME280;4040;42.848;23.034;2023-03-19T20:36:12;95246.97;;;6.65;100.00
7990;BME280;4040;42.848;23.034;2023-03-19T20:42:01;95262.69;;;6.37;100.00
7990;BME280;4040;42.848;23.034;2023-03-19T20:52:13;95268.38;;;6.06;100.00
7990;BME280;4040;42.848;23.034;2023-03-19T20:58:11;95265.63;;;5.76;100.00
7990;BME280;4040;42.848;23.034;2023-03-19T21:04:02;95269.34;;;5.68;100.00
7990;BME280;4040;42.848;23.034;2023-03-19T21:09:52;95247.69;;;5.28;100.00
7990;BME280;4040;42.848;23.034;2023-03-19T21:15:40;95271.00;;;5.31;100.00
7990;BME280;4040;42.848;23.034;2023-03-19T21:21:31;95277.66;;;5.18;100.00
7990;BME280;4040;42.848;23.034;2023-03-19T21:27:23;95253.50;;;5.11;100.00
7990;BME280;4040;42.848;23.034;2023-03-19T21:33:21;95284.88;;;4.95;100.00
7990;BME280;4040;42.848;23.034;2023-03-19T21:39:10;95287.03;;;4.14;100.00
7990;BME280;4040;42.848;23.034;2023-03-19T21:45:01;95290.59;;;4.03;100.00
7990;BME280;4040;42.848;23.034;2023-03-19T21:55:16;95293.53;;;3.98;100.00
7990;BME280;4040;42.848;23.034;2023-03-19T22:01:14;95289.63;;;3.61;100.00
7990;BME280;4040;42.848;23.034;2023-03-19T22:07:03;95287.22;;;3.56;100.00
7990;BME280;4040;42.848;23.034;2023-03-19T22:12:53;95275.63;;;3.64;100.00
7990;BME280;4040;42.848;23.034;2023-03-19T22:18:43;95287.88;;;3.84;100.00
7990;BME280;4040;42.848;23.034;2023-03-19T22:24:32;95290.00;;;3.94;100.00
7990;BME280;4040;42.848;23.034;2023-03-19T22:30:26;95287.34;;;3.94;100.00
7990;BME280;4040;42.848;23.034;2023-03-19T22:36:20;95278.50;;;3.90;100.00
7990;BME280;4040;42.848;23.034;2023-03-19T22:42:08;95269.06;;;3.77;100.00
7990;BME280;4040;42.848;23.034;2023-03-19T22:47:57;95274.41;;;3.77;100.00
7990;BME280;4040;42.848;23.034;2023-03-19T22:58:10;95279.06;;;3.99;100.00
7990;BME280;4040;42.848;23.034;2023-03-19T23:08:32;95286.00;;;3.69;100.00
7990;BME280;4040;42.848;23.034;2023-03-19T23:14:21;95283.63;;;3.64;100.00
7990;BME280;4040;42.848;23.034;2023-03-19T23:20:11;95284.09;;;3.85;100.00
7990;BME280;4040;42.848;23.034;2023-03-19T23:26:02;95284.91;;;4.04;100.00
7990;BME280;4040;42.848;23.034;2023-03-19T23:31:51;95276.16;;;4.04;100.00
7990;BME280;4040;42.848;23.034;2023-03-19T23:37:40;95259.84;;;3.90;100.00
7990;BME280;4040;42.848;23.034;2023-03-19T23:43:31;95271.38;;;3.94;100.00
7990;BME280;4040;42.848;23.034;2023-03-19T23:49:25;95268.41;;;3.99;100.00
7990;BME280;4040;42.848;23.034;2023-03-19T23:55:14;95257.28;;;3.78;100.00
